Airfield :
LOGIN :

Register | Disclaimer

   EN    FR    IT 

 










Legend :    VFR   Marginal VFR   IFR   Intensive IFR   Very Intensive IFR
Visi :
Ceiling :
>= 8 km
>= 3000ft
5 to 8 km
1000 to 3000 ft
1500m to 5 km
500 to 1000 ft
800 to 1500m
200 to 500 ft
< 800m
< 200 ft
Symbols :   Thunderstorms  Fog  Heavy snow  Heavy precipitations  Wind > 20 kt
SIGMETs :     Misc.  Thunderstorms  Icing  Turbulence  Mountain Waves  Volcanic Ashes






- Airport Elevation : 187 ft


ETNW - Wunstorf AB

CURRENT METAR :
  • 080120Z AUTO 23004KT 4800 // ////// 13/10 Q1015 ///

EXPIRED METARs :
  • 080020Z AUTO 25003KT 5000 // ////// 13/09 Q1016 ///

TAF TAF ETNW
Valid from the 07 at 11:00 until the 08 at 11:00 UTC


071020Z 0711/0811 26010KT 9999 NSW SCT040 BKN120
TEMPO 0713/0719 25012G22KT 5000 -SHRA SCT015 BKN020TCU
BECMG 0800/0802 25010KT 8000 NSW SCT010 BKN020
TEMPO 0802/0809 26010KT 4000 RA BKN007 OVC015 BY ETGL



MET'MAP, your aeronautical weather chart ! - Copyright ORBIFLY December 2007 - Disclaimer

ORBIFLY MET'MAP TEAM :

Programming & Development : Alexandra Zaïnal
Concept & original design : Baudouin d'Aumeries
Assistance for programming : Marc-Olivier Méhu
Technical & hardware support : Manuel Goepfert

Contact : metmap@orbifly.com




SOURCES & CREDITS :

   NOAA